Time;durP1;ratioP1;P1;durP2;ratioP2;P2;SDS_P1;SDS_P2;PMS_P1;PMS_P2;Temp;Humidity;BMP_temperature;BMP_pressure;BME280_temperature;BME280_humidity;BME280_pressure;Samples;Min_cycle;Max_cycle;Signal;HPM_P1;HPM_P2
2021/11/24 00:00:08;;;;;;;0.00;0.00;;;4.20;99.90;;;;;;5091430;28;20107;-78
2021/11/24 00:02:34;;;;;;;0.00;0.00;;;4.20;99.90;;;;;;5091647;28;20383;-78
2021/11/24 00:05:00;;;;;;;0.00;0.00;;;4.20;99.90;;;;;;5092049;28;20483;-78
2021/11/24 00:07:27;;;;;;;0.00;0.00;;;4.20;99.90;;;;;;5092068;28;20236;-78
2021/11/24 00:09:52;;;;;;;2.72;0.90;;;4.20;99.90;;;;;;5092008;28;20039;-78
2021/11/24 00:12:18;;;;;;;0.00;0.00;;;4.20;99.90;;;;;;5091958;28;20024;-78
2021/11/24 00:14:44;;;;;;;0.20;0.20;;;4.20;99.90;;;;;;5092128;28;20092;-78
2021/11/24 00:17:09;;;;;;;0.00;0.00;;;4.20;99.90;;;;;;5091512;28;20058;-78
2021/11/24 00:19:35;;;;;;;0.00;0.00;;;4.20;99.90;;;;;;5091734;28;20050;-78
2021/11/24 00:22:01;;;;;;;0.00;0.00;;;4.20;99.90;;;;;;5091964;28;20028;-78
2021/11/24 00:24:26;;;;;;;0.15;0.10;;;4.20;99.90;;;;;;5091998;28;20036;-78
2021/11/24 00:26:52;;;;;;;0.10;0.10;;;4.20;99.90;;;;;;5091778;28;20020;-78
2021/11/24 00:29:18;;;;;;;0.00;0.00;;;4.20;99.90;;;;;;5091732;28;20376;-78
2021/11/24 00:31:43;;;;;;;0.03;0.03;;;4.20;99.90;;;;;;5091789;28;20497;-78
2021/11/24 00:34:09;;;;;;;0.45;0.43;;;4.20;99.90;;;;;;5095045;28;20498;-78
2021/11/24 00:36:35;;;;;;;0.00;0.00;;;4.10;99.90;;;;;;5095478;28;20024;-78
2021/11/24 00:39:00;;;;;;;0.00;0.00;;;4.10;99.90;;;;;;5095350;28;20428;-78
2021/11/24 00:41:26;;;;;;;0.00;0.00;;;4.10;99.90;;;;;;5075840;28;20505;-78
2021/11/24 00:43:52;;;;;;;0.20;0.20;;;4.10;99.90;;;;;;5094977;28;20024;-78
2021/11/24 00:46:17;;;;;;;0.00;0.00;;;4.10;99.90;;;;;;5095057;28;20076;-78
2021/11/24 00:48:43;;;;;;;0.10;0.10;;;4.10;99.90;;;;;;5094916;28;20020;-78
2021/11/24 00:51:09;;;;;;;0.00;0.00;;;4.10;99.90;;;;;;5095020;28;20503;-78
2021/11/24 00:53:34;;;;;;;0.00;0.00;;;4.10;99.90;;;;;;5095010;28;20020;-78
2021/11/24 00:56:00;;;;;;;0.55;0.52;;;4.10;99.90;;;;;;5095260;28;20039;-78
2021/11/24 00:58:26;;;;;;;0.00;0.00;;;4.10;99.90;;;;;;5094744;28;20028;-78
2021/11/24 01:00:52;;;;;;;0.00;0.00;;;4.20;99.90;;;;;;5094093;28;20036;-78
2021/11/24 01:03:18;;;;;;;0.13;0.13;;;4.30;99.90;;;;;;5094538;28;20101;-78
2021/11/24 01:05:46;;;;;;;0.00;0.00;;;4.30;99.90;;;;;;5094926;28;20483;-78
2021/11/24 01:08:12;;;;;;;0.05;0.05;;;4.40;99.90;;;;;;5076605;28;20637;-78
2021/11/24 01:10:38;;;;;;;0.00;0.00;;;4.50;99.90;;;;;;5094855;28;20040;-78
2021/11/24 01:13:04;;;;;;;0.70;0.35;;;4.50;99.90;;;;;;5093578;28;20103;-78
2021/11/24 01:15:31;;;;;;;0.00;0.00;;;4.50;99.90;;;;;;5094590;28;20016;-78
2021/11/24 01:17:56;;;;;;;0.95;0.47;;;4.60;99.90;;;;;;5094108;28;20091;-78
2021/11/24 01:20:23;;;;;;;0.00;0.00;;;4.70;99.90;;;;;;5094175;28;20048;-78
2021/11/24 01:22:48;;;;;;;0.00;0.00;;;4.70;99.90;;;;;;5094688;28;20020;-78
2021/11/24 01:25:14;;;;;;;0.00;0.00;;;4.70;99.90;;;;;;5076172;28;20055;-78
2021/11/24 01:27:41;;;;;;;0.00;0.00;;;4.70;99.90;;;;;;5094473;28;20048;-78
2021/11/24 01:30:09;;;;;;;0.20;0.20;;;4.80;99.90;;;;;;5094228;28;20016;-79
2021/11/24 01:32:35;;;;;;;0.93;0.90;;;4.80;99.90;;;;;;5075916;28;20017;-78
2021/11/24 01:35:00;;;;;;;0.77;0.35;;;4.90;99.90;;;;;;5094212;28;20498;-78
2021/11/24 01:37:26;;;;;;;0.15;0.15;;;4.90;99.90;;;;;;5076156;28;20441;-78
2021/11/24 01:39:52;;;;;;;0.00;0.00;;;4.90;99.90;;;;;;5094283;28;20028;-78
2021/11/24 01:42:18;;;;;;;0.15;0.15;;;5.00;99.90;;;;;;5093112;28;20402;-78
2021/11/24 01:44:43;;;;;;;1.20;0.45;;;5.00;99.90;;;;;;5092822;28;20385;-78
2021/11/24 01:47:09;;;;;;;0.00;0.00;;;5.00;99.90;;;;;;5093935;28;20103;-78
2021/11/24 01:49:35;;;;;;;4.40;0.75;;;5.00;99.90;;;;;;5093575;28;20028;-78
2021/11/24 01:52:01;;;;;;;0.00;0.00;;;5.00;99.90;;;;;;5093738;28;20042;-78
2021/11/24 01:54:29;;;;;;;0.00;0.00;;;5.00;99.90;;;;;;5094028;28;20048;-78
2021/11/24 01:56:54;;;;;;;0.00;0.00;;;5.00;99.90;;;;;;5093805;28;20383;-78
2021/11/24 01:59:21;;;;;;;1.10;0.60;;;5.00;99.90;;;;;;5092928;28;20032;-78
2021/11/24 02:01:49;;;;;;;0.10;0.10;;;5.00;99.90;;;;;;5093680;28;20024;-78
2021/11/24 02:04:15;;;;;;;0.00;0.00;;;5.00;99.90;;;;;;5093496;28;20372;-78
2021/11/24 02:06:42;;;;;;;0.13;0.13;;;5.00;99.90;;;;;;5093818;28;20553;-79
2021/11/24 02:09:08;;;;;;;0.10;0.10;;;5.00;99.90;;;;;;5093779;28;20024;-78
2021/11/24 02:11:37;;;;;;;0.13;0.05;;;5.10;99.90;;;;;;5093607;28;20050;-78
2021/11/24 02:14:04;;;;;;;0.00;0.00;;;5.10;99.90;;;;;;5093477;28;20048;-78
2021/11/24 02:16:30;;;;;;;0.00;0.00;;;5.10;99.90;;;;;;5093409;28;20068;-78
2021/11/24 02:18:55;;;;;;;0.00;0.00;;;5.10;99.90;;;;;;5092960;28;20095;-78
2021/11/24 02:21:21;;;;;;;0.00;0.00;;;5.10;99.90;;;;;;5093728;28;20028;-78
2021/11/24 02:23:47;;;;;;;0.15;0.15;;;5.10;99.90;;;;;;5075400;28;20075;-78
2021/11/24 02:26:12;;;;;;;2.05;0.45;;;5.10;99.90;;;;;;5093362;28;20028;-78
2021/11/24 02:28:39;;;;;;;0.00;0.00;;;5.10;99.90;;;;;;5093237;28;20059;-78
2021/11/24 02:31:06;;;;;;;0.00;0.00;;;5.10;99.90;;;;;;5093093;28;20024;-78
2021/11/24 02:33:32;;;;;;;0.35;0.35;;;5.10;99.90;;;;;;5092878;28;20039;-78
2021/11/24 02:35:57;;;;;;;0.57;0.57;;;5.10;99.90;;;;;;5093307;28;20028;-78
2021/11/24 02:38:23;;;;;;;0.22;0.20;;;5.10;99.90;;;;;;5092970;28;20495;-78
2021/11/24 02:40:49;;;;;;;0.00;0.00;;;5.20;99.90;;;;;;5092053;28;20081;-79
2021/11/24 02:43:14;;;;;;;0.20;0.20;;;5.20;99.90;;;;;;5073300;28;20031;-78
2021/11/24 02:45:40;;;;;;;0.00;0.00;;;5.10;99.90;;;;;;5074727;28;20036;-78
2021/11/24 02:48:06;;;;;;;0.70;0.60;;;5.10;99.90;;;;;;5092669;28;20038;-78
2021/11/24 02:50:32;;;;;;;0.00;0.00;;;5.10;99.90;;;;;;5092749;28;20424;-78
2021/11/24 02:52:58;;;;;;;0.00;0.00;;;5.20;99.90;;;;;;5092536;28;20028;-78
2021/11/24 02:55:24;;;;;;;0.00;0.00;;;5.20;99.90;;;;;;5074301;28;20057;-78
2021/11/24 02:57:51;;;;;;;0.00;0.00;;;5.20;99.90;;;;;;5092633;28;20020;-78
2021/11/24 03:00:22;;;;;;;1.08;0.15;;;5.20;99.90;;;;;;5092032;28;20020;-79
2021/11/24 03:02:49;;;;;;;0.10;0.10;;;5.20;99.90;;;;;;5092498;28;20035;-78
2021/11/24 03:05:23;;;;;;;0.05;0.05;;;5.20;99.90;;;;;;5092532;28;20032;-79
2021/11/24 03:07:50;;;;;;;0.00;0.00;;;5.20;99.90;;;;;;5092620;28;20032;-78
2021/11/24 03:10:15;;;;;;;0.00;0.00;;;5.20;99.90;;;;;;5092545;28;20046;-78
2021/11/24 03:12:42;;;;;;;0.00;0.00;;;5.20;99.90;;;;;;5074449;28;20036;-78
2021/11/24 03:15:08;;;;;;;0.00;0.00;;;5.20;99.90;;;;;;5092676;28;20024;-78
2021/11/24 03:17:35;;;;;;;0.00;0.00;;;5.20;99.90;;;;;;5092315;28;20065;-79
2021/11/24 03:20:02;;;;;;;0.00;0.00;;;5.20;99.90;;;;;;5092606;28;20542;-79
2021/11/24 03:22:28;;;;;;;0.10;0.10;;;5.20;99.90;;;;;;5092826;28;20054;-78
2021/11/24 03:24:56;;;;;;;1.65;0.20;;;5.20;99.90;;;;;;5092469;28;20483;-78
2021/11/24 03:27:31;;;;;;;0.00;0.00;;;5.10;99.90;;;;;;5092397;28;20067;-78
2021/11/24 03:29:58;;;;;;;0.10;0.10;;;5.10;99.90;;;;;;5074219;28;20494;-79
2021/11/24 03:32:24;;;;;;;0.28;0.20;;;5.00;99.90;;;;;;5092135;28;20363;-78
2021/11/24 03:34:50;;;;;;;0.00;0.00;;;5.00;99.90;;;;;;5092342;28;20486;-79
2021/11/24 03:37:17;;;;;;;0.00;0.00;;;5.00;99.90;;;;;;5092299;28;20107;-78
2021/11/24 03:39:44;;;;;;;0.00;0.00;;;4.90;99.90;;;;;;5092329;28;20432;-78
2021/11/24 03:42:10;;;;;;;0.50;0.45;;;4.90;99.90;;;;;;5091343;28;20028;-78
2021/11/24 03:44:35;;;;;;;0.00;0.00;;;5.00;99.90;;;;;;5091992;28;20078;-78
2021/11/24 03:47:01;;;;;;;1.13;0.25;;;5.00;99.90;;;;;;5092159;28;20028;-78
2021/11/24 03:49:27;;;;;;;0.00;0.00;;;5.00;99.90;;;;;;5073798;28;20032;-79
2021/11/24 03:51:53;;;;;;;0.00;0.00;;;5.00;99.90;;;;;;5091887;28;20028;-78
2021/11/24 03:54:18;;;;;;;0.20;0.20;;;5.00;99.90;;;;;;5092127;28;20106;-78
2021/11/24 03:56:44;;;;;;;0.08;0.08;;;4.90;99.90;;;;;;5092061;28;20109;-78
2021/11/24 03:59:10;;;;;;;0.25;0.25;;;4.80;99.90;;;;;;5091561;28;20036;-79
2021/11/24 04:01:35;;;;;;;0.00;0.00;;;4.80;99.90;;;;;;5092053;28;20016;-78
2021/11/24 04:04:01;;;;;;;0.00;0.00;;;4.80;99.90;;;;;;5091823;28;20054;-78
2021/11/24 04:06:29;;;;;;;0.32;0.32;;;4.80;99.90;;;;;;5092136;28;20548;-78
2021/11/24 04:08:55;;;;;;;0.93;0.10;;;4.70;99.90;;;;;;5077272;28;20077;-78
2021/11/24 04:11:21;;;;;;;0.00;0.00;;;4.70;99.90;;;;;;5094985;28;20046;-79
2021/11/24 04:13:47;;;;;;;0.00;0.00;;;4.60;99.90;;;;;;5096014;28;20024;-78
2021/11/24 04:16:12;;;;;;;0.00;0.00;;;4.60;99.90;;;;;;5077688;28;20029;-78
2021/11/24 04:18:38;;;;;;;0.25;0.25;;;4.60;99.90;;;;;;5095276;28;20097;-78
2021/11/24 04:21:04;;;;;;;0.00;0.00;;;4.50;99.90;;;;;;5095700;28;20060;-78
2021/11/24 04:23:30;;;;;;;0.20;0.20;;;4.50;99.90;;;;;;5095760;28;20115;-78
2021/11/24 04:25:56;;;;;;;0.00;0.00;;;4.50;99.90;;;;;;5074839;28;20052;-78
2021/11/24 04:28:22;;;;;;;0.10;0.10;;;4.50;99.90;;;;;;5095895;28;20473;-78
2021/11/24 04:30:48;;;;;;;0.00;0.00;;;4.40;99.90;;;;;;5095556;28;20077;-79
2021/11/24 04:33:14;;;;;;;0.00;0.00;;;4.30;99.90;;;;;;5094701;28;20441;-78
2021/11/24 04:35:40;;;;;;;0.08;0.05;;;4.30;99.90;;;;;;5095536;28;20539;-78
2021/11/24 04:38:06;;;;;;;0.10;0.10;;;4.20;99.90;;;;;;5095425;28;20021;-78
2021/11/24 04:40:32;;;;;;;0.10;0.10;;;4.10;99.90;;;;;;5095402;28;20031;-78
2021/11/24 04:43:00;;;;;;;0.10;0.10;;;3.90;99.90;;;;;;5094002;28;20423;-79
2021/11/24 04:45:26;;;;;;;0.00;0.00;;;3.80;99.90;;;;;;5094791;28;20020;-78
2021/11/24 04:47:52;;;;;;;0.00;0.00;;;3.70;99.90;;;;;;5095155;28;20043;-78
2021/11/24 04:50:18;;;;;;;0.00;0.00;;;3.60;99.90;;;;;;5094982;28;20027;-78
2021/11/24 04:52:44;;;;;;;0.00;0.00;;;3.50;99.90;;;;;;5094841;28;20425;-78
2021/11/24 04:55:10;;;;;;;0.05;0.05;;;3.50;99.90;;;;;;5095014;28;20506;-78
2021/11/24 04:57:36;;;;;;;0.00;0.00;;;3.50;99.90;;;;;;5094883;28;20024;-78
2021/11/24 05:00:10;;;;;;;0.00;0.00;;;3.30;99.90;;;;;;5094288;28;20034;-78
2021/11/24 05:02:35;;;;;;;0.17;0.17;;;3.30;99.90;;;;;;5094803;28;20034;-78
2021/11/24 05:05:02;;;;;;;0.00;0.00;;;3.20;99.90;;;;;;5094786;28;20028;-78
2021/11/24 05:07:27;;;;;;;0.20;0.20;;;3.20;99.90;;;;;;5094587;28;20040;-78
2021/11/24 05:09:53;;;;;;;0.00;0.00;;;3.20;99.90;;;;;;5094811;28;20082;-78
2021/11/24 05:12:19;;;;;;;0.00;0.00;;;3.20;99.90;;;;;;5094892;28;20020;-79
2021/11/24 05:14:47;;;;;;;0.08;0.08;;;3.10;99.90;;;;;;5094750;28;20027;-81
2021/11/24 05:17:15;;;;;;;0.00;0.00;;;3.10;99.90;;;;;;5094311;28;20016;-81
2021/11/24 05:19:46;;;;;;;0.10;0.10;;;3.10;99.90;;;;;;5094445;28;20025;-80
2021/11/24 05:22:12;;;;;;;0.00;0.00;;;3.00;99.90;;;;;;5094556;28;20108;-78
2021/11/24 05:24:38;;;;;;;0.35;0.35;;;3.00;99.90;;;;;;5094693;28;20071;-78
2021/11/24 05:27:05;;;;;;;0.00;0.00;;;3.00;99.90;;;;;;5094242;28;20049;-78
2021/11/24 05:29:31;;;;;;;0.00;0.00;;;3.00;99.90;;;;;;5094503;28;20036;-78
2021/11/24 05:31:57;;;;;;;0.00;0.00;;;2.90;99.90;;;;;;5094397;28;20028;-78
2021/11/24 05:34:22;;;;;;;0.00;0.00;;;2.90;99.90;;;;;;5094232;28;20110;-79
2021/11/24 05:36:48;;;;;;;0.00;0.00;;;2.90;99.90;;;;;;5094513;28;20050;-78
2021/11/24 05:39:14;;;;;;;2.05;0.15;;;2.80;99.90;;;;;;5094228;28;20393;-78
2021/11/24 05:41:41;;;;;;;0.00;0.00;;;2.90;99.90;;;;;;5076429;28;20518;-79
2021/11/24 05:46:54;;;;;;;0.10;0.10;;;2.80;99.90;;;;;;5094153;28;20020;-78
2021/11/24 05:49:20;;;;;;;0.00;0.00;;;2.80;99.90;;;;;;5093611;28;20028;-78
2021/11/24 05:51:47;;;;;;;0.20;0.20;;;2.90;99.90;;;;;;5093530;28;20402;-78
2021/11/24 05:54:13;;;;;;;0.30;0.30;;;2.80;99.90;;;;;;5094027;28;20057;-78
2021/11/24 05:56:39;;;;;;;0.00;0.00;;;2.80;99.90;;;;;;5090337;28;20085;-77
2021/11/24 05:59:10;;;;;;;0.00;0.00;;;2.80;99.90;;;;;;5091189;28;20368;-78
2021/11/24 06:01:36;;;;;;;0.00;0.00;;;2.80;99.90;;;;;;5092964;28;20552;-78
2021/11/24 06:04:03;;;;;;;0.20;0.20;;;2.80;99.90;;;;;;5093381;28;20028;-78
2021/11/24 06:06:29;;;;;;;0.00;0.00;;;2.80;99.90;;;;;;5093362;28;20103;-78
2021/11/24 06:08:55;;;;;;;0.00;0.00;;;2.80;99.90;;;;;;5093847;28;20031;-78
2021/11/24 06:11:21;;;;;;;0.00;0.00;;;2.80;99.90;;;;;;5074300;28;20040;-78
2021/11/24 06:13:47;;;;;;;0.10;0.10;;;2.80;99.90;;;;;;5093102;28;20027;-78
2021/11/24 06:16:13;;;;;;;0.45;0.30;;;2.70;99.90;;;;;;5092946;28;20024;-78
2021/11/24 06:18:38;;;;;;;0.00;0.00;;;2.70;99.90;;;;;;5092440;28;20027;-78
2021/11/24 06:21:04;;;;;;;0.05;0.05;;;2.70;99.90;;;;;;5074786;28;20032;-78
2021/11/24 06:23:30;;;;;;;0.57;0.25;;;2.70;99.90;;;;;;5093396;28;20042;-78
2021/11/24 06:25:56;;;;;;;0.00;0.00;;;2.70;99.90;;;;;;5093433;28;20024;-78
2021/11/24 06:28:21;;;;;;;0.10;0.10;;;2.70;99.90;;;;;;5093130;28;20074;-79
2021/11/24 06:30:47;;;;;;;0.08;0.08;;;2.70;99.90;;;;;;5092536;28;20028;-79
2021/11/24 06:33:12;;;;;;;0.10;0.10;;;2.70;99.90;;;;;;5092629;28;20024;-79
2021/11/24 06:35:38;;;;;;;0.80;0.80;;;2.60;99.90;;;;;;5074875;28;20024;-78
2021/11/24 06:38:04;;;;;;;0.15;0.15;;;2.70;99.90;;;;;;5093030;28;20024;-79
2021/11/24 06:40:30;;;;;;;0.00;0.00;;;2.60;99.90;;;;;;5074879;28;20115;-78
2021/11/24 06:42:56;;;;;;;0.65;0.30;;;2.60;99.90;;;;;;5092801;28;20028;-78
2021/11/24 06:45:22;;;;;;;0.70;0.60;;;2.60;99.90;;;;;;5091304;28;20081;-78
2021/11/24 06:47:48;;;;;;;0.00;0.00;;;2.60;99.90;;;;;;5090850;28;20490;-77
2021/11/24 06:50:14;;;;;;;0.00;0.00;;;2.60;99.90;;;;;;5087399;28;20079;-78
2021/11/24 06:52:41;;;;;;;0.00;0.00;;;2.60;99.90;;;;;;5090319;28;20028;-78
2021/11/24 06:55:08;;;;;;;0.30;0.30;;;2.50;99.90;;;;;;5092777;28;20024;-78
2021/11/24 06:57:34;;;;;;;0.10;0.10;;;2.50;99.90;;;;;;5097121;28;20061;-78
2021/11/24 07:00:00;;;;;;;0.00;0.00;;;2.50;99.90;;;;;;5096262;28;20106;-78
2021/11/24 07:02:25;;;;;;;0.00;0.00;;;2.50;99.90;;;;;;5090110;28;20106;-78
2021/11/24 07:04:51;;;;;;;0.20;0.20;;;2.50;99.90;;;;;;5101028;28;20020;-78
2021/11/24 07:07:17;;;;;;;0.00;0.00;;;2.50;99.90;;;;;;5105120;28;20035;-78
2021/11/24 07:09:42;;;;;;;0.20;0.20;;;2.50;99.90;;;;;;5094175;28;20498;-78
2021/11/24 07:12:09;;;;;;;0.40;0.40;;;2.50;99.90;;;;;;5080961;28;20103;-78
2021/11/24 07:14:35;;;;;;;0.00;0.00;;;2.50;99.90;;;;;;5091021;28;20463;-78
2021/11/24 07:17:02;;;;;;;0.28;0.22;;;2.50;99.90;;;;;;5103040;28;20023;-77
2021/11/24 07:19:28;;;;;;;1.20;1.10;;;2.50;99.90;;;;;;5111955;28;20022;-78
2021/11/24 07:21:54;;;;;;;0.00;0.00;;;2.60;99.90;;;;;;5092455;28;20032;-77
2021/11/24 07:24:20;;;;;;;0.00;0.00;;;2.50;99.90;;;;;;5097872;28;20035;-78
2021/11/24 07:26:46;;;;;;;0.28;0.28;;;2.50;99.90;;;;;;5089957;28;20075;-78
2021/11/24 07:29:14;;;;;;;0.00;0.00;;;2.50;99.90;;;;;;5100427;28;20114;-78
2021/11/24 07:31:40;;;;;;;0.08;0.08;;;2.50;99.90;;;;;;5094402;28;20474;-78
2021/11/24 07:34:06;;;;;;;0.05;0.05;;;2.50;99.90;;;;;;5093166;28;20046;-78
2021/11/24 07:36:32;;;;;;;0.00;0.00;;;2.50;99.90;;;;;;5088467;28;20040;-77
2021/11/24 07:38:57;;;;;;;3.90;0.40;;;2.50;99.90;;;;;;5091748;28;20036;-78
2021/11/24 07:41:23;;;;;;;0.00;0.00;;;2.50;99.90;;;;;;5107732;28;20445;-78
2021/11/24 07:43:50;;;;;;;0.00;0.00;;;2.50;99.90;;;;;;5098844;28;20028;-77
2021/11/24 07:46:16;;;;;;;0.00;0.00;;;2.50;99.90;;;;;;5098638;28;20371;-77
2021/11/24 07:48:42;;;;;;;0.00;0.00;;;2.50;99.90;;;;;;5095556;28;20028;-77
2021/11/24 07:51:10;;;;;;;1.20;0.73;;;2.50;99.90;;;;;;5085428;28;20031;-80
2021/11/24 07:53:36;;;;;;;11.18;0.55;;;2.50;99.90;;;;;;5092735;28;20028;-80
2021/11/24 07:56:01;;;;;;;5.40;0.70;;;2.50;99.90;;;;;;5099577;28;20069;-78
2021/11/24 07:58:27;;;;;;;0.82;0.68;;;2.50;99.90;;;;;;5100942;28;20023;-78
2021/11/24 08:00:52;;;;;;;0.10;0.10;;;2.50;99.90;;;;;;5084913;28;20048;-78
2021/11/24 08:03:18;;;;;;;0.20;0.20;;;2.50;99.90;;;;;;5099500;28;20032;-78
2021/11/24 08:05:44;;;;;;;0.00;0.00;;;2.50;99.90;;;;;;5100272;28;20032;-78
2021/11/24 08:08:10;;;;;;;2.20;0.32;;;2.50;99.90;;;;;;5100362;28;20090;-78
2021/11/24 08:10:36;;;;;;;0.17;0.17;;;2.50;99.90;;;;;;5093767;28;20444;-78
2021/11/24 08:13:02;;;;;;;0.47;0.43;;;2.50;99.90;;;;;;5076539;28;20044;-78
2021/11/24 08:15:28;;;;;;;0.20;0.20;;;2.60;99.90;;;;;;5095510;28;20047;-78
2021/11/24 08:17:53;;;;;;;0.85;0.60;;;2.60;99.90;;;;;;5102306;28;20099;-78
2021/11/24 08:20:19;;;;;;;1.00;1.00;;;2.60;99.90;;;;;;5096345;28;20030;-75
2021/11/24 08:22:45;;;;;;;0.50;0.50;;;2.60;99.90;;;;;;5100680;28;20429;-75
2021/11/24 08:25:11;;;;;;;0.10;0.10;;;2.70;99.90;;;;;;5097526;28;20034;-76
2021/11/24 08:27:37;;;;;;;0.10;0.10;;;2.70;99.90;;;;;;5093164;28;20054;-76
2021/11/24 08:30:07;;;;;;;0.00;0.00;;;2.70;99.90;;;;;;5106843;28;20480;-76
2021/11/24 08:32:33;;;;;;;0.00;0.00;;;2.80;99.90;;;;;;5093620;28;20020;-77
2021/11/24 08:34:59;;;;;;;0.00;0.00;;;2.80;99.90;;;;;;5092746;28;20201;-77
2021/11/24 08:37:26;;;;;;;1.35;0.57;;;2.90;99.90;;;;;;5093662;28;20024;-76
2021/11/24 08:39:51;;;;;;;3.03;0.95;;;2.90;99.90;;;;;;5101249;28;20386;-76
2021/11/24 08:42:17;;;;;;;0.35;0.35;;;2.90;99.90;;;;;;5108775;28;20099;-77
2021/11/24 08:44:43;;;;;;;3.10;1.13;;;2.90;99.90;;;;;;5096276;28;20103;-76
2021/11/24 08:47:08;;;;;;;0.40;0.40;;;3.00;99.90;;;;;;5105662;28;20076;-77
2021/11/24 08:49:34;;;;;;;0.00;0.00;;;3.10;99.90;;;;;;5096397;28;20024;-76
2021/11/24 08:52:00;;;;;;;0.03;0.03;;;3.20;99.90;;;;;;5096541;28;20728;-76
2021/11/24 08:54:31;;;;;;;0.05;0.05;;;3.30;99.90;;;;;;5098698;28;20035;-77
2021/11/24 08:56:56;;;;;;;0.00;0.00;;;3.30;99.90;;;;;;5094450;28;20032;-76
2021/11/24 08:59:22;;;;;;;0.47;0.47;;;3.30;99.90;;;;;;5098469;28;20551;-77
2021/11/24 09:01:48;;;;;;;0.08;0.08;;;3.30;99.90;;;;;;5092912;28;20522;-77
2021/11/24 09:04:13;;;;;;;0.90;0.22;;;3.30;99.90;;;;;;5095862;28;20040;-77
2021/11/24 09:06:39;;;;;;;0.45;0.45;;;3.30;99.90;;;;;;5101862;28;20401;-77
2021/11/24 09:09:06;;;;;;;0.20;0.20;;;3.30;99.90;;;;;;5093443;28;20024;-76
2021/11/24 09:11:32;;;;;;;0.00;0.00;;;3.30;99.90;;;;;;5093558;28;20028;-77
2021/11/24 09:13:58;;;;;;;1.45;1.23;;;3.30;99.90;;;;;;5096596;28;20020;-76
2021/11/24 09:16:23;;;;;;;0.00;0.00;;;3.20;99.90;;;;;;5097505;28;20031;-77
2021/11/24 09:18:49;;;;;;;0.20;0.20;;;3.20;99.90;;;;;;5093280;28;20020;-76
2021/11/24 09:21:15;;;;;;;0.08;0.08;;;3.20;99.90;;;;;;5094515;28;20024;-76
2021/11/24 09:23:43;;;;;;;0.20;0.20;;;3.30;99.90;;;;;;5093372;28;20098;-76
2021/11/24 09:26:25;;;;;;;0.00;0.00;;;3.30;99.90;;;;;;5100450;28;20036;-76
2021/11/24 09:28:51;;;;;;;0.15;0.08;;;3.30;99.90;;;;;;5095632;28;20079;-75
2021/11/24 09:31:17;;;;;;;0.30;0.30;;;3.40;99.90;;;;;;5098519;28;20040;-76
2021/11/24 09:33:44;;;;;;;0.28;0.28;;;3.50;99.90;;;;;;5103377;28;20035;-76
2021/11/24 09:36:10;;;;;;;0.00;0.00;;;3.50;99.90;;;;;;5105801;28;20082;-76
2021/11/24 09:38:36;;;;;;;0.00;0.00;;;3.60;99.90;;;;;;5101247;28;20382;-76
2021/11/24 09:41:09;;;;;;;0.25;0.10;;;3.70;99.90;;;;;;5085193;28;20024;-76
2021/11/24 09:43:40;;;;;;;0.65;0.43;;;3.90;99.90;;;;;;5091796;28;20028;-77
2021/11/24 09:46:07;;;;;;;0.77;0.77;;;4.00;99.90;;;;;;5086122;28;20058;-77
2021/11/24 09:48:35;;;;;;;0.25;0.25;;;4.10;99.90;;;;;;5097505;28;20394;-77
2021/11/24 09:51:02;;;;;;;1.58;1.35;;;4.10;99.90;;;;;;5092402;28;20020;-78
2021/11/24 09:53:29;;;;;;;0.38;0.32;;;4.20;99.90;;;;;;5099282;28;20051;-77
2021/11/24 09:55:56;;;;;;;0.28;0.28;;;4.20;99.90;;;;;;5090929;28;20027;-77
2021/11/24 09:58:22;;;;;;;0.08;0.08;;;4.30;99.90;;;;;;5091858;28;20479;-77
2021/11/24 10:00:47;;;;;;;0.20;0.20;;;4.40;99.90;;;;;;5080994;28;20035;-77
2021/11/24 10:03:15;;;;;;;0.00;0.00;;;4.40;99.90;;;;;;5075745;28;20096;-76
2021/11/24 10:05:41;;;;;;;0.10;0.10;;;4.50;99.90;;;;;;5092983;28;20099;-76
2021/11/24 10:08:07;;;;;;;0.22;0.22;;;4.60;99.90;;;;;;5094226;28;20106;-76
2021/11/24 10:10:33;;;;;;;0.10;0.10;;;4.70;99.90;;;;;;5089722;28;20028;-76
2021/11/24 10:12:59;;;;;;;0.38;0.38;;;4.80;99.90;;;;;;5089850;28;20066;-76
2021/11/24 10:15:40;;;;;;;0.47;0.47;;;5.00;99.90;;;;;;5091680;28;20027;-76
2021/11/24 10:18:20;;;;;;;0.17;0.17;;;5.10;99.90;;;;;;5091331;28;20850;-76
2021/11/24 10:20:52;;;;;;;0.10;0.10;;;5.10;99.90;;;;;;5090536;28;20036;-77
2021/11/24 10:23:40;;;;;;;0.05;0.05;;;5.30;99.90;;;;;;5091860;28;20032;-76
2021/11/24 10:26:17;;;;;;;2.55;0.52;;;5.50;99.90;;;;;;5065334;28;20379;-76
2021/11/24 10:29:07;;;;;;;1.17;0.20;;;5.50;99.90;;;;;;5068163;28;20078;-76
2021/11/24 10:34:20;;;;;;;0.45;0.45;;;5.90;99.90;;;;;;5061529;28;20159;-80
2021/11/24 10:36:53;;;;;;;0.15;0.15;;;6.00;99.90;;;;;;5065673;28;20055;-79
2021/11/24 10:39:21;;;;;;;0.03;0.03;;;6.30;99.90;;;;;;5066146;28;20060;-79
2021/11/24 10:41:49;;;;;;;0.40;0.40;;;6.40;99.90;;;;;;5067732;28;20017;-76
2021/11/24 10:44:26;;;;;;;1.15;0.30;;;6.60;99.90;;;;;;5068021;28;20071;-76
2021/11/24 10:46:54;;;;;;;0.00;0.00;;;6.70;99.90;;;;;;5059737;28;20099;-77
2021/11/24 10:49:30;;;;;;;6.65;0.38;;;6.80;99.90;;;;;;5067084;28;20646;-76
2021/11/24 10:51:56;;;;;;;0.65;0.65;;;7.10;99.90;;;;;;5067333;28;20016;-77
2021/11/24 10:54:22;;;;;;;0.32;0.32;;;7.20;99.90;;;;;;5067366;28;20032;-76
2021/11/24 10:57:08;;;;;;;0.20;0.20;;;7.30;99.90;;;;;;5066605;28;20029;-76
2021/11/24 10:59:37;;;;;;;0.38;0.30;;;7.30;99.90;;;;;;5065763;28;20447;-76
2021/11/24 11:02:15;;;;;;;0.00;0.00;;;7.20;99.90;;;;;;5065605;28;20402;-77
2021/11/24 11:04:56;;;;;;;1.55;1.45;;;7.10;99.90;;;;;;5063947;28;20080;-76
2021/11/24 11:07:22;;;;;;;2.05;1.15;;;7.00;99.90;;;;;;5066814;28;20029;-77
2021/11/24 11:09:47;;;;;;;0.40;0.40;;;7.00;99.90;;;;;;5064977;28;20017;-76
2021/11/24 11:12:13;;;;;;;0.00;0.00;;;7.20;99.90;;;;;;5063509;28;20107;-76
2021/11/24 11:14:39;;;;;;;0.57;0.40;;;7.30;99.90;;;;;;5066152;28;20025;-77
2021/11/24 11:17:05;;;;;;;0.63;0.63;;;7.50;99.90;;;;;;5066789;28;20064;-76
2021/11/24 11:19:41;;;;;;;0.45;0.45;;;7.50;99.90;;;;;;5064732;28;20060;-76
2021/11/24 11:22:08;;;;;;;1.23;0.60;;;7.40;99.90;;;;;;5066628;28;20761;-76
2021/11/24 11:24:34;;;;;;;0.20;0.20;;;7.40;99.90;;;;;;5064903;28;20396;-76
2021/11/24 11:27:00;;;;;;;2.10;1.10;;;7.50;99.90;;;;;;5066849;28;20025;-76
2021/11/24 11:29:27;;;;;;;0.08;0.08;;;7.40;99.90;;;;;;5065324;28;20418;-76
2021/11/24 11:31:53;;;;;;;0.90;0.90;;;7.30;99.90;;;;;;5065482;28;20055;-76
2021/11/24 11:34:19;;;;;;;1.08;0.98;;;7.20;99.90;;;;;;5066858;28;20545;-79
2021/11/24 11:36:45;;;;;;;0.13;0.13;;;7.40;99.90;;;;;;5058595;28;20032;-79
2021/11/24 11:39:11;;;;;;;0.32;0.32;;;7.40;99.90;;;;;;5053848;28;20039;-76
2021/11/24 11:41:41;;;;;;;0.20;0.20;;;7.50;99.90;;;;;;5051141;28;20029;-77
2021/11/24 11:44:13;;;;;;;0.10;0.10;;;7.90;99.90;;;;;;5045641;28;20038;-76
2021/11/24 11:46:49;;;;;;;1.65;1.02;;;7.90;99.90;;;;;;5046603;28;20032;-76
2021/11/24 11:49:18;;;;;;;0.65;0.65;;;7.80;99.90;;;;;;5041414;28;20033;-77
2021/11/24 11:51:46;;;;;;;1.67;0.35;;;8.00;99.90;;;;;;5048428;28;20025;-76
2021/11/24 11:54:32;;;;;;;0.65;0.30;;;8.20;99.90;;;;;;5051768;28;20041;-77
2021/11/24 11:57:01;;;;;;;0.20;0.13;;;8.30;99.90;;;;;;5050907;28;20090;-76
2021/11/24 11:59:31;;;;;;;1.60;1.02;;;8.50;99.90;;;;;;5050902;28;20025;-78
2021/11/24 12:02:01;;;;;;;0.55;0.55;;;8.70;99.90;;;;;;5048384;28;20493;-76
2021/11/24 12:04:45;;;;;;;3.92;0.75;;;8.80;99.90;;;;;;5048877;28;20128;-76
2021/11/24 12:07:16;;;;;;;0.63;0.20;;;9.00;99.90;;;;;;5047459;28;20032;-76
2021/11/24 12:09:46;;;;;;;0.55;0.20;;;9.00;99.90;;;;;;5049218;28;20043;-75
2021/11/24 12:12:16;;;;;;;0.77;0.60;;;9.00;99.90;;;;;;5048164;28;20119;-76
2021/11/24 12:15:05;;;;;;;0.38;0.28;;;9.00;99.90;;;;;;5049561;28;20025;-77
2021/11/24 12:17:35;;;;;;;0.55;0.32;;;9.20;99.90;;;;;;5049388;28;20040;-75
2021/11/24 12:20:28;;;;;;;1.35;0.10;;;9.40;99.90;;;;;;5047231;28;20087;-76
2021/11/24 12:22:56;;;;;;;0.40;0.17;;;9.20;99.90;;;;;;5045792;28;20036;-76
2021/11/24 12:25:28;;;;;;;0.40;0.40;;;9.10;99.90;;;;;;5046763;28;20170;-76
2021/11/24 12:27:53;;;;;;;0.45;0.45;;;9.30;99.90;;;;;;5046413;28;20025;-76
2021/11/24 12:33:06;;;;;;;1.02;0.65;;;9.20;99.90;;;;;;5048282;28;20128;-76
2021/11/24 12:35:34;;;;;;;0.10;0.10;;;9.30;99.90;;;;;;5048442;28;20527;-76
2021/11/24 12:38:01;;;;;;;1.75;1.38;;;9.30;99.90;;;;;;5047573;28;20079;-76
2021/11/24 12:40:30;;;;;;;3.33;1.05;;;9.60;99.90;;;;;;5049404;28;20029;-76
2021/11/24 12:43:01;;;;;;;0.00;0.00;;;9.40;99.90;;;;;;5049393;28;20086;-76
2021/11/24 12:45:28;;;;;;;2.63;0.43;;;9.50;99.90;;;;;;5049683;28;20025;-76
2021/11/24 12:48:01;;;;;;;3.83;1.27;;;9.40;99.90;;;;;;5047095;28;20024;-77
2021/11/24 12:50:28;;;;;;;0.65;0.47;;;9.60;99.90;;;;;;5037344;28;20054;-76
2021/11/24 12:52:58;;;;;;;0.00;0.00;;;9.80;99.90;;;;;;5048704;28;20035;-77
2021/11/24 12:55:25;;;;;;;1.10;0.38;;;9.90;99.90;;;;;;5050466;28;20021;-77
2021/11/24 12:57:51;;;;;;;2.03;0.70;;;9.80;99.90;;;;;;5049196;28;20112;-76
2021/11/24 13:00:30;;;;;;;1.17;0.52;;;9.70;99.90;;;;;;5049744;28;20075;-76
2021/11/24 13:02:57;;;;;;;0.00;0.00;;;9.60;99.90;;;;;;5049625;28;20064;-77
2021/11/24 13:05:23;;;;;;;0.40;0.25;;;9.70;99.90;;;;;;5051563;28;20518;-75